createdAt,value
2023-02-14T00:00:28.242Z,37.77
2023-02-14T00:02:57.794Z,34.07
2023-02-14T00:05:27.055Z,37.47
2023-02-14T00:07:57.661Z,38.17
2023-02-14T00:10:26.919Z,37.83
2023-02-14T00:12:56.118Z,37.60
2023-02-14T00:15:25.190Z,37.23
2023-02-14T00:17:55.643Z,37.20
2023-02-14T00:20:25.366Z,36.33
2023-02-14T00:22:55.266Z,37.50
2023-02-14T00:25:25.922Z,37.37
2023-02-14T00:27:56.100Z,36.33
2023-02-14T00:30:25.925Z,33.73
2023-02-14T00:32:55.352Z,32.83
2023-02-14T00:35:24.570Z,32.70
2023-02-14T00:37:53.790Z,33.03
2023-02-14T00:40:23.150Z,33.27
2023-02-14T00:42:53.735Z,31.23
2023-02-14T00:45:25.139Z,31.60
2023-02-14T00:47:54.836Z,27.60
2023-02-14T00:50:24.009Z,28.30
2023-02-14T00:52:53.943Z,28.10
2023-02-14T00:55:23.090Z,29.50
2023-02-14T00:57:53.731Z,27.27
2023-02-14T01:00:23.894Z,25.97
2023-02-14T01:02:53.402Z,24.90
2023-02-14T01:05:22.635Z,25.00
2023-02-14T01:07:52.002Z,25.20
2023-02-14T01:10:21.213Z,26.20
2023-02-14T01:12:50.575Z,23.93
2023-02-14T01:15:21.415Z,25.60
2023-02-14T01:17:50.874Z,22.50
2023-02-14T01:20:20.139Z,21.70
2023-02-14T01:22:49.347Z,20.83
2023-02-14T01:25:18.931Z,22.17
2023-02-14T01:27:48.313Z,21.83
2023-02-14T01:30:18.470Z,22.57
2023-02-14T01:32:49.756Z,22.13
2023-02-14T01:35:19.164Z,19.67
2023-02-14T01:37:48.419Z,19.83
2023-02-14T01:40:17.658Z,18.27
2023-02-14T01:42:46.911Z,17.60
2023-02-14T01:45:19.227Z,18.67
2023-02-14T01:47:52.874Z,17.60
2023-02-14T01:50:23.871Z,20.07
2023-02-14T01:52:54.940Z,17.70
2023-02-14T01:55:26.103Z,18.70
2023-02-14T01:57:58.050Z,20.77
2023-02-14T02:00:44.981Z,19.87
2023-02-14T02:03:16.222Z,22.00
2023-02-14T02:05:50.248Z,20.97
2023-02-14T02:08:19.551Z,23.37
2023-02-14T02:10:48.741Z,22.70
2023-02-14T02:13:18.562Z,23.17
2023-02-14T02:15:52.246Z,24.03
2023-02-14T02:18:28.436Z,23.93
2023-02-14T02:21:16.543Z,25.73
2023-02-14T02:23:56.613Z,24.30
2023-02-14T02:26:40.273Z,25.07
2023-02-14T02:29:33.523Z,24.20
2023-02-14T02:32:20.484Z,24.00
2023-02-14T02:35:08.136Z,22.47
2023-02-14T02:37:43.866Z,23.10
2023-02-14T02:40:30.192Z,23.20
2023-02-14T02:43:03.392Z,22.57
2023-02-14T02:45:59.866Z,21.53
2023-02-14T02:48:33.932Z,21.60
2023-02-14T02:51:24.196Z,21.17
2023-02-14T02:53:56.976Z,21.90
2023-02-14T02:56:47.804Z,22.10
2023-02-14T02:59:20.783Z,21.73
2023-02-14T03:01:58.062Z,22.57
2023-02-14T03:04:46.457Z,20.73
2023-02-14T03:07:33.621Z,20.57
2023-02-14T03:10:07.839Z,21.30
2023-02-14T03:12:54.751Z,20.37
2023-02-14T03:15:29.841Z,20.47
2023-02-14T03:18:04.550Z,20.10
2023-02-14T03:20:38.076Z,20.30
2023-02-14T03:23:10.398Z,18.87
2023-02-14T03:25:45.312Z,20.53
2023-02-14T03:28:19.466Z,19.50
2023-02-14T03:30:56.387Z,20.23
2023-02-14T03:33:31.726Z,21.17
2023-02-14T03:36:03.945Z,20.40
2023-02-14T03:38:36.331Z,19.20
2023-02-14T03:41:09.338Z,19.20
2023-02-14T03:43:39.952Z,18.20
2023-02-14T03:46:11.358Z,19.37
2023-02-14T03:48:42.128Z,18.27
2023-02-14T03:51:13.304Z,19.47
2023-02-14T03:53:46.006Z,16.57
2023-02-14T03:56:18.373Z,18.50
2023-02-14T03:58:49.345Z,18.17
2023-02-14T04:01:45.031Z,18.80
2023-02-14T04:04:16.811Z,18.30
2023-02-14T04:06:46.268Z,19.50
2023-02-14T04:09:15.515Z,19.27
2023-02-14T04:11:46.605Z,18.30
2023-02-14T04:14:16.040Z,17.90
2023-02-14T04:17:02.708Z,19.73
2023-02-14T04:19:32.079Z,19.10
2023-02-14T04:22:01.278Z,18.03
2023-02-14T04:24:30.517Z,17.73
2023-02-14T04:27:11.462Z,19.20
2023-02-14T04:29:41.492Z,17.87
2023-02-14T04:32:11.781Z,17.33
2023-02-14T04:34:41.327Z,19.90
2023-02-14T04:37:10.699Z,17.93
2023-02-14T04:39:40.337Z,18.33
2023-02-14T04:42:11.007Z,17.33
2023-02-14T04:44:40.166Z,18.50
2023-02-14T04:47:09.422Z,16.90
2023-02-14T04:49:38.748Z,16.93
2023-02-14T04:52:08.429Z,18.57
2023-02-14T04:54:37.652Z,18.47
2023-02-14T04:57:07.127Z,17.20
2023-02-14T04:59:37.810Z,17.30
2023-02-14T05:02:07.148Z,17.63
2023-02-14T05:04:36.519Z,18.77
2023-02-14T05:07:06.723Z,17.27
2023-02-14T05:09:36.057Z,16.50
2023-02-14T05:12:05.470Z,17.33
2023-02-14T05:14:34.892Z,17.10
2023-02-14T05:17:05.516Z,16.20
2023-02-14T05:19:34.928Z,15.40
2023-02-14T05:22:04.102Z,15.97
2023-02-14T05:24:33.460Z,17.30
2023-02-14T05:27:02.726Z,16.20
2023-02-14T05:29:32.170Z,16.27
2023-02-14T05:32:01.649Z,15.90
2023-02-14T05:34:32.639Z,17.37
2023-02-14T05:37:02.670Z,15.73
2023-02-14T05:39:31.862Z,17.60
2023-02-14T05:42:01.226Z,29.47
2023-02-14T05:44:30.379Z,17.80
2023-02-14T05:46:59.649Z,16.37
2023-02-14T05:49:29.097Z,17.07
2023-02-14T05:51:59.801Z,17.37
2023-02-14T05:54:29.091Z,15.67
2023-02-14T05:56:58.399Z,14.70
2023-02-14T05:59:27.603Z,15.20
2023-02-14T06:01:56.819Z,15.00
2023-02-14T06:04:26.134Z,16.30
2023-02-14T06:06:55.560Z,16.00
2023-02-14T06:09:26.190Z,16.03
2023-02-14T06:11:55.578Z,15.50
2023-02-14T06:14:24.992Z,15.87
2023-02-14T06:16:54.306Z,16.00
2023-02-14T06:19:23.670Z,14.80
2023-02-14T06:21:52.967Z,14.00
2023-02-14T06:24:22.174Z,15.20
2023-02-14T06:26:52.775Z,16.30
2023-02-14T06:29:21.945Z,16.60
2023-02-14T06:31:51.332Z,17.60
2023-02-14T06:34:21.020Z,17.00
2023-02-14T06:36:50.226Z,16.60
2023-02-14T06:39:19.428Z,17.30
2023-02-14T06:41:48.790Z,17.60
2023-02-14T06:44:19.419Z,16.70
2023-02-14T06:46:48.586Z,17.17
2023-02-14T06:49:17.828Z,16.50
2023-02-14T06:51:47.138Z,17.80
2023-02-14T06:54:16.320Z,16.57
2023-02-14T06:56:45.648Z,17.90
2023-02-14T06:59:14.837Z,17.63
2023-02-14T07:01:45.458Z,16.67
2023-02-14T07:04:14.822Z,17.47
2023-02-14T07:06:44.341Z,18.20
2023-02-14T07:09:16.956Z,18.53
2023-02-14T07:11:46.361Z,18.57
2023-02-14T07:14:15.712Z,18.20
2023-02-14T07:16:46.549Z,18.30
2023-02-14T07:19:15.988Z,17.87
2023-02-14T07:21:45.215Z,17.77
2023-02-14T07:24:14.473Z,18.80
2023-02-14T07:26:44.101Z,17.80
2023-02-14T07:29:13.349Z,17.73
2023-02-14T07:31:42.823Z,15.77
2023-02-14T07:34:13.671Z,16.37
2023-02-14T07:36:44.298Z,15.43
2023-02-14T07:39:13.661Z,20.70
2023-02-14T07:41:42.843Z,37.33
2023-02-14T07:44:13.024Z,18.20
2023-02-14T07:46:42.239Z,21.20
2023-02-14T07:49:11.556Z,21.83
2023-02-14T07:51:42.784Z,20.93
2023-02-14T07:54:12.232Z,22.17
2023-02-14T07:56:41.421Z,21.60
2023-02-14T07:59:10.928Z,23.90
2023-02-14T08:01:40.350Z,18.20
2023-02-14T08:04:09.646Z,17.77
2023-02-14T08:06:38.903Z,18.53
2023-02-14T08:09:10.548Z,18.80
2023-02-14T08:11:57.744Z,18.47
2023-02-14T08:14:26.995Z,17.33
2023-02-14T08:16:56.149Z,19.43
2023-02-14T08:19:25.481Z,16.37
2023-02-14T08:21:54.725Z,15.40
2023-02-14T08:24:25.701Z,15.53
2023-02-14T08:26:55.183Z,16.43
2023-02-14T08:29:24.460Z,15.77
2023-02-14T08:31:54.486Z,14.40
2023-02-14T08:34:23.866Z,14.27
2023-02-14T08:36:53.315Z,13.87
2023-02-14T08:39:22.523Z,18.63
2023-02-14T08:41:53.347Z,16.07
2023-02-14T08:44:22.531Z,16.73
2023-02-14T08:46:51.654Z,16.77
2023-02-14T08:49:21.075Z,15.97
2023-02-14T08:51:50.448Z,17.33
2023-02-14T08:54:19.735Z,15.90
2023-02-14T08:56:48.917Z,15.67
2023-02-14T08:59:19.658Z,15.10
2023-02-14T09:01:48.926Z,15.60
2023-02-14T09:04:18.898Z,15.43
2023-02-14T09:06:48.158Z,18.20
2023-02-14T09:09:19.579Z,16.20
2023-02-14T09:11:49.101Z,15.40
2023-02-14T09:14:21.206Z,16.20
2023-02-14T09:16:50.577Z,13.43
2023-02-14T09:19:20.032Z,14.03
2023-02-14T09:21:49.387Z,11.53
2023-02-14T09:24:18.682Z,12.23
2023-02-14T09:26:48.405Z,13.50
2023-02-14T09:29:19.205Z,11.60
2023-02-14T09:31:48.634Z,13.40
2023-02-14T09:34:36.029Z,13.10
2023-02-14T09:37:23.339Z,14.20
2023-02-14T09:39:52.653Z,12.70
2023-02-14T09:42:30.481Z,11.40
2023-02-14T09:45:03.432Z,12.20
2023-02-14T09:47:36.203Z,15.60
2023-02-14T09:50:06.312Z,13.20
2023-02-14T09:52:36.560Z,13.10
2023-02-14T09:55:06.050Z,11.53
2023-02-14T09:57:41.416Z,13.30
2023-02-14T10:00:25.086Z,11.97
2023-02-14T10:03:01.302Z,12.10
2023-02-14T10:05:31.679Z,11.77
2023-02-14T10:08:03.240Z,12.50
2023-02-14T10:10:37.132Z,11.17
2023-02-14T10:13:09.555Z,9.10
2023-02-14T10:15:41.440Z,12.40
2023-02-14T10:18:13.617Z,9.07
2023-02-14T10:20:44.421Z,10.10
2023-02-14T10:23:22.376Z,11.43
2023-02-14T10:25:56.518Z,11.87
2023-02-14T10:28:28.870Z,9.60
2023-02-14T10:31:03.302Z,12.57
2023-02-14T10:33:35.398Z,15.00
2023-02-14T10:36:06.870Z,11.23
2023-02-14T10:38:43.238Z,13.43
2023-02-14T10:41:19.103Z,12.93
2023-02-14T10:43:52.506Z,11.63
2023-02-14T10:46:27.818Z,11.20
2023-02-14T10:49:00.322Z,14.53
2023-02-14T10:51:34.034Z,13.20
2023-02-14T10:54:11.311Z,12.10
2023-02-14T10:56:42.633Z,11.67
2023-02-14T10:59:17.572Z,13.37
2023-02-14T11:01:49.234Z,11.10
2023-02-14T11:04:19.445Z,12.93
2023-02-14T11:06:50.473Z,12.70
2023-02-14T11:09:19.904Z,13.77
2023-02-14T11:11:50.866Z,12.40
2023-02-14T11:14:25.204Z,13.40
2023-02-14T11:16:56.673Z,13.50
2023-02-14T11:19:27.625Z,13.30
2023-02-14T11:21:57.914Z,13.03
2023-02-14T11:24:32.175Z,14.10
2023-02-14T11:27:02.995Z,15.30
2023-02-14T11:29:33.431Z,13.07
2023-02-14T11:32:10.592Z,15.90
2023-02-14T11:34:41.385Z,12.20
2023-02-14T11:37:20.355Z,13.50
2023-02-14T11:39:50.449Z,17.23
2023-02-14T11:42:34.360Z,15.77
2023-02-14T11:45:05.389Z,14.47
2023-02-14T11:47:41.704Z,15.10
2023-02-14T11:50:23.557Z,14.57
2023-02-14T11:52:54.052Z,14.90
2023-02-14T11:55:26.959Z,15.30
2023-02-14T11:57:56.602Z,14.20
2023-02-14T12:00:27.118Z,16.10
2023-02-14T12:02:58.140Z,15.87
2023-02-14T12:05:30.425Z,16.47
2023-02-14T12:08:00.719Z,15.83
2023-02-14T12:10:30.897Z,15.10
2023-02-14T12:13:02.097Z,12.50
2023-02-14T12:15:34.828Z,12.30
2023-02-14T12:18:22.021Z,12.97
2023-02-14T12:20:55.437Z,12.80
2023-02-14T12:23:27.695Z,11.77
2023-02-14T12:25:59.880Z,15.23
2023-02-14T12:28:32.156Z,11.63
2023-02-14T12:31:01.633Z,13.00
2023-02-14T12:33:31.420Z,12.10
2023-02-14T12:36:05.845Z,11.23
2023-02-14T12:38:43.652Z,11.23
2023-02-14T12:41:24.415Z,11.30
2023-02-14T12:43:55.488Z,10.90
2023-02-14T12:46:42.777Z,10.60
2023-02-14T12:49:32.563Z,9.37
2023-02-14T12:52:09.430Z,9.03
2023-02-14T12:54:45.367Z,9.17
2023-02-14T12:57:20.958Z,9.93
2023-02-14T12:59:56.115Z,10.40
2023-02-14T13:02:40.090Z,7.83
2023-02-14T13:05:16.675Z,8.40
2023-02-14T13:07:55.930Z,8.67
2023-02-14T13:10:32.712Z,7.93
2023-02-14T13:13:06.086Z,7.47
2023-02-14T13:15:38.987Z,5.63
2023-02-14T13:18:13.536Z,8.10
2023-02-14T13:20:45.458Z,7.30
2023-02-14T13:23:19.388Z,6.83
2023-02-14T13:25:50.704Z,6.77
2023-02-14T13:28:21.114Z,9.60
2023-02-14T13:30:50.528Z,6.60
2023-02-14T13:33:28.356Z,7.33
2023-02-14T13:35:59.104Z,6.30
2023-02-14T13:38:31.951Z,7.83
2023-02-14T13:41:02.209Z,6.00
2023-02-14T13:43:48.122Z,6.17
2023-02-14T13:46:18.693Z,6.20
2023-02-14T13:48:58.334Z,6.07
2023-02-14T13:51:42.467Z,6.77
2023-02-14T13:54:22.522Z,8.90
2023-02-14T13:56:51.924Z,7.23
2023-02-14T13:59:29.089Z,6.60
2023-02-14T14:01:58.727Z,6.63
2023-02-14T14:04:38.030Z,7.00
2023-02-14T14:07:25.831Z,7.90
2023-02-14T14:09:58.830Z,6.40
2023-02-14T14:12:44.156Z,6.00
2023-02-14T14:15:18.718Z,6.20
2023-02-14T14:17:50.519Z,7.17
2023-02-14T14:20:34.144Z,6.27
2023-02-14T14:23:03.514Z,8.43
2023-02-14T14:25:34.968Z,7.33
2023-02-14T14:28:04.420Z,6.73
2023-02-14T14:30:34.515Z,9.13
2023-02-14T14:33:15.227Z,7.67
2023-02-14T14:35:54.370Z,6.67
2023-02-14T14:38:23.841Z,6.80
2023-02-14T14:40:55.115Z,6.80
2023-02-14T14:43:28.045Z,6.60
2023-02-14T14:45:59.135Z,6.03
2023-02-14T14:48:32.705Z,6.53
2023-02-14T14:51:02.458Z,7.10
2023-02-14T14:53:35.509Z,5.90
2023-02-14T14:56:06.789Z,7.00
2023-02-14T14:58:39.635Z,6.73
2023-02-14T15:01:10.566Z,7.17
2023-02-14T15:03:39.790Z,7.93
2023-02-14T15:06:17.799Z,6.90
2023-02-14T15:08:48.411Z,7.83
2023-02-14T15:11:35.629Z,6.73
2023-02-14T15:14:05.918Z,7.37
2023-02-14T15:16:37.998Z,6.97
2023-02-14T15:19:10.914Z,6.50
2023-02-14T15:21:44.626Z,6.20
2023-02-14T15:24:15.917Z,5.53
2023-02-14T15:26:48.570Z,7.63
2023-02-14T15:29:23.188Z,7.67
2023-02-14T15:31:52.863Z,5.00
2023-02-14T15:34:23.832Z,5.73
2023-02-14T15:36:57.642Z,6.20
2023-02-14T15:39:31.907Z,5.83
2023-02-14T15:42:03.187Z,5.10
2023-02-14T15:44:32.998Z,5.20
2023-02-14T15:47:03.784Z,5.77
2023-02-14T15:49:35.254Z,5.70
2023-02-14T15:52:05.828Z,5.80
2023-02-14T15:54:38.011Z,9.70
2023-02-14T15:57:10.091Z,5.33
2023-02-14T15:59:43.688Z,7.03
2023-02-14T16:02:21.467Z,6.97
2023-02-14T16:04:51.742Z,7.50
2023-02-14T16:07:24.442Z,7.40
2023-02-14T16:10:13.994Z,5.97
2023-02-14T16:12:44.923Z,5.77
2023-02-14T16:15:20.321Z,5.63
2023-02-14T16:17:50.683Z,5.80
2023-02-14T16:20:29.105Z,6.27
2023-02-14T16:23:17.174Z,6.07
2023-02-14T16:25:49.528Z,7.93
2023-02-14T16:28:21.390Z,6.87
2023-02-14T16:30:55.431Z,6.83
2023-02-14T16:33:26.593Z,6.70
2023-02-14T16:35:56.235Z,6.37
2023-02-14T16:38:25.566Z,5.73
2023-02-14T16:40:56.284Z,6.80
2023-02-14T16:43:27.310Z,5.63
2023-02-14T16:45:57.223Z,6.00
2023-02-14T16:48:27.282Z,6.67
2023-02-14T16:50:57.687Z,6.47
2023-02-14T16:53:28.523Z,13.97
2023-02-14T16:56:00.112Z,6.10
2023-02-14T16:58:34.225Z,6.40
2023-02-14T17:01:04.240Z,5.30
2023-02-14T17:03:34.034Z,6.50
2023-02-14T17:06:06.495Z,6.50
2023-02-14T17:08:36.523Z,5.80
2023-02-14T17:11:07.579Z,6.20
2023-02-14T17:13:41.134Z,6.70
2023-02-14T17:16:13.111Z,7.20
2023-02-14T17:18:43.692Z,6.40
2023-02-14T17:21:13.031Z,6.30
2023-02-14T17:23:42.394Z,7.20
2023-02-14T17:26:12.166Z,6.30
2023-02-14T17:28:42.908Z,7.40
2023-02-14T17:31:13.401Z,6.87
2023-02-14T17:33:43.441Z,20.07
2023-02-14T17:36:13.763Z,7.60
2023-02-14T17:38:45.340Z,8.93
2023-02-14T17:41:15.846Z,9.20
2023-02-14T17:43:47.176Z,8.43
2023-02-14T17:46:18.862Z,8.30
2023-02-14T17:48:49.111Z,9.10
2023-02-14T17:51:20.685Z,7.77
2023-02-14T17:53:50.419Z,8.77
2023-02-14T17:56:20.702Z,7.53
2023-02-14T17:58:52.163Z,9.13
2023-02-14T18:01:22.518Z,9.10
2023-02-14T18:03:52.164Z,9.03
2023-02-14T18:06:22.134Z,8.93
2023-02-14T18:08:53.186Z,9.67
2023-02-14T18:11:23.146Z,9.60
2023-02-14T18:13:55.319Z,8.60
2023-02-14T18:16:25.007Z,9.47
2023-02-14T18:18:55.108Z,8.37
2023-02-14T18:21:24.776Z,8.70
2023-02-14T18:23:54.081Z,9.57
2023-02-14T18:26:24.105Z,10.30
2023-02-14T18:28:54.890Z,10.23
2023-02-14T18:31:24.498Z,10.70
2023-02-14T18:33:53.816Z,10.20
2023-02-14T18:36:24.513Z,14.00
2023-02-14T18:38:55.119Z,12.00
2023-02-14T18:41:24.703Z,10.90
2023-02-14T18:43:55.445Z,11.80
2023-02-14T18:46:26.275Z,11.70
2023-02-14T18:48:56.029Z,11.90
2023-02-14T18:51:27.395Z,12.03
2023-02-14T18:53:57.788Z,11.70
2023-02-14T18:56:29.015Z,10.27
2023-02-14T18:59:01.523Z,10.30
2023-02-14T19:01:32.452Z,9.80
2023-02-14T19:04:03.219Z,12.10
2023-02-14T19:06:34.293Z,11.47
2023-02-14T19:09:04.620Z,13.23
2023-02-14T19:11:34.228Z,12.10
2023-02-14T19:14:10.294Z,12.80
2023-02-14T19:16:42.300Z,13.07
2023-02-14T19:19:11.985Z,13.13
2023-02-14T19:21:41.522Z,11.73
2023-02-14T19:24:11.242Z,12.23
2023-02-14T19:26:41.320Z,12.43
2023-02-14T19:29:13.057Z,11.30
2023-02-14T19:31:43.795Z,11.73
2023-02-14T19:34:18.184Z,11.77
2023-02-14T19:36:48.084Z,14.20
2023-02-14T19:39:17.638Z,13.07
2023-02-14T19:41:47.654Z,12.37
2023-02-14T19:44:18.923Z,13.87
2023-02-14T19:46:48.676Z,11.00
2023-02-14T19:49:19.929Z,11.60
2023-02-14T19:51:51.569Z,14.23
2023-02-14T19:54:22.158Z,12.63
2023-02-14T19:56:51.574Z,15.07
2023-02-14T19:59:22.965Z,14.63
2023-02-14T20:01:53.418Z,17.17
2023-02-14T20:04:23.722Z,14.97
2023-02-14T20:06:53.650Z,14.20
2023-02-14T20:09:23.054Z,12.60
2023-02-14T20:11:54.602Z,14.30
2023-02-14T20:14:26.448Z,17.90
2023-02-14T20:16:57.346Z,14.60
2023-02-14T20:19:29.508Z,15.07
2023-02-14T20:21:58.781Z,13.77
2023-02-14T20:24:28.828Z,14.97
2023-02-14T20:26:58.641Z,18.50
2023-02-14T20:29:30.033Z,16.17
2023-02-14T20:32:03.553Z,13.53
2023-02-14T20:34:33.294Z,16.20
2023-02-14T20:37:02.550Z,15.90
2023-02-14T20:39:33.180Z,16.20
2023-02-14T20:42:02.892Z,20.90
2023-02-14T20:44:34.008Z,21.10
2023-02-14T20:47:03.535Z,16.97
2023-02-14T20:49:32.869Z,15.07
2023-02-14T20:52:02.386Z,15.77
2023-02-14T20:54:31.788Z,16.50
2023-02-14T20:57:01.066Z,17.07
2023-02-14T20:59:30.415Z,16.93
2023-02-14T21:02:01.160Z,18.40
2023-02-14T21:04:30.780Z,22.93
2023-02-14T21:07:04.207Z,16.57
2023-02-14T21:09:33.712Z,17.03
2023-02-14T21:12:02.879Z,20.20
2023-02-14T21:14:32.336Z,18.27
2023-02-14T21:17:04.455Z,16.53
2023-02-14T21:19:33.815Z,17.20
2023-02-14T21:22:03.124Z,19.60
2023-02-14T21:24:32.358Z,17.23
2023-02-14T21:27:01.969Z,16.80
2023-02-14T21:29:31.131Z,16.40
2023-02-14T21:32:02.587Z,23.77
2023-02-14T21:34:34.418Z,14.50
2023-02-14T21:37:03.666Z,17.40
2023-02-14T21:39:35.993Z,16.77
2023-02-14T21:42:05.502Z,16.40
2023-02-14T21:44:52.147Z,16.63
2023-02-14T21:47:21.790Z,16.63
2023-02-14T21:50:09.980Z,15.27
2023-02-14T21:52:39.849Z,15.00
2023-02-14T21:55:10.032Z,17.30
2023-02-14T21:57:39.743Z,16.93
2023-02-14T22:00:09.644Z,15.97
2023-02-14T22:02:41.952Z,17.53
2023-02-14T22:05:12.590Z,16.10
2023-02-14T22:07:42.064Z,18.60
2023-02-14T22:10:13.033Z,16.57
2023-02-14T22:12:42.577Z,16.83
2023-02-14T22:15:11.993Z,16.97
2023-02-14T22:17:41.184Z,15.40
2023-02-14T22:20:10.846Z,16.17
2023-02-14T22:22:41.740Z,17.60
2023-02-14T22:25:11.450Z,17.50
2023-02-14T22:27:41.266Z,19.83
2023-02-14T22:30:10.842Z,17.40
2023-02-14T22:32:40.148Z,15.00
2023-02-14T22:35:09.723Z,17.10
2023-02-14T22:37:39.526Z,16.00
2023-02-14T22:40:11.014Z,17.50
2023-02-14T22:42:40.248Z,16.13
2023-02-14T22:45:10.191Z,17.40
2023-02-14T22:47:39.835Z,19.33
2023-02-14T22:50:10.004Z,22.07
2023-02-14T22:52:39.309Z,16.90
2023-02-14T22:55:10.505Z,16.80
2023-02-14T22:57:39.833Z,16.50
2023-02-14T23:00:11.905Z,14.90
2023-02-14T23:02:41.537Z,15.13
2023-02-14T23:05:10.940Z,16.23
2023-02-14T23:07:40.354Z,16.80
2023-02-14T23:10:12.066Z,14.10
2023-02-14T23:12:59.127Z,16.10
2023-02-14T23:15:45.825Z,14.73
2023-02-14T23:18:32.731Z,14.97
2023-02-14T23:21:19.726Z,15.43
2023-02-14T23:23:49.248Z,14.33
2023-02-14T23:26:22.502Z,16.87
2023-02-14T23:28:52.156Z,14.67
2023-02-14T23:31:21.624Z,15.00
2023-02-14T23:33:53.295Z,14.03
2023-02-14T23:36:22.949Z,15.60
2023-02-14T23:38:52.178Z,14.97
2023-02-14T23:41:40.292Z,16.20
2023-02-14T23:44:09.804Z,15.47
2023-02-14T23:46:39.027Z,16.97
2023-02-14T23:49:08.373Z,15.47
2023-02-14T23:51:38.049Z,16.40
2023-02-14T23:54:07.637Z,46.00
2023-02-14T23:56:38.850Z,15.43
2023-02-14T23:59:08.179Z,16.20
